sensor_id;sensor_type;location;lat;lon;timestamp;P1;durP1;ratioP1;P2;durP2;ratioP2
19260;SDS011;9764;48.114;11.670;2023-06-26T00:02:15;5.63;;;5.03;;
19260;SDS011;9764;48.114;11.670;2023-06-26T00:04:44;5.78;;;5.18;;
19260;SDS011;9764;48.114;11.670;2023-06-26T00:07:12;5.97;;;5.28;;
19260;SDS011;9764;48.114;11.670;2023-06-26T00:09:40;5.65;;;5.15;;
19260;SDS011;9764;48.114;11.670;2023-06-26T00:12:09;5.40;;;4.90;;
19260;SDS011;9764;48.114;11.670;2023-06-26T00:14:38;5.25;;;4.75;;
19260;SDS011;9764;48.114;11.670;2023-06-26T00:17:06;5.72;;;5.15;;
19260;SDS011;9764;48.114;11.670;2023-06-26T00:19:35;8.55;;;5.43;;
19260;SDS011;9764;48.114;11.670;2023-06-26T00:22:03;5.53;;;5.00;;
19260;SDS011;9764;48.114;11.670;2023-06-26T00:24:32;5.40;;;4.90;;
19260;SDS011;9764;48.114;11.670;2023-06-26T00:27:00;6.40;;;5.43;;
19260;SDS011;9764;48.114;11.670;2023-06-26T00:29:28;5.35;;;4.85;;
19260;SDS011;9764;48.114;11.670;2023-06-26T00:31:58;5.93;;;5.10;;
19260;SDS011;9764;48.114;11.670;2023-06-26T00:34:26;5.30;;;4.80;;
19260;SDS011;9764;48.114;11.670;2023-06-26T00:36:55;5.85;;;5.25;;
19260;SDS011;9764;48.114;11.670;2023-06-26T00:39:23;5.57;;;5.07;;
19260;SDS011;9764;48.114;11.670;2023-06-26T00:41:52;4.97;;;4.57;;
19260;SDS011;9764;48.114;11.670;2023-06-26T00:44:21;6.38;;;4.90;;
19260;SDS011;9764;48.114;11.670;2023-06-26T00:46:49;5.57;;;5.07;;
19260;SDS011;9764;48.114;11.670;2023-06-26T00:49:19;5.45;;;4.95;;
19260;SDS011;9764;48.114;11.670;2023-06-26T00:51:48;5.60;;;5.10;;
19260;SDS011;9764;48.114;11.670;2023-06-26T00:54:17;4.85;;;4.35;;
19260;SDS011;9764;48.114;11.670;2023-06-26T00:56:47;6.10;;;5.50;;
19260;SDS011;9764;48.114;11.670;2023-06-26T00:59:16;5.53;;;5.03;;
19260;SDS011;9764;48.114;11.670;2023-06-26T01:01:44;5.38;;;4.88;;
19260;SDS011;9764;48.114;11.670;2023-06-26T01:04:12;7.07;;;5.32;;
19260;SDS011;9764;48.114;11.670;2023-06-26T01:06:46;5.45;;;4.95;;
19260;SDS011;9764;48.114;11.670;2023-06-26T01:09:17;7.03;;;5.40;;
19260;SDS011;9764;48.114;11.670;2023-06-26T01:11:46;5.30;;;4.80;;
19260;SDS011;9764;48.114;11.670;2023-06-26T01:14:14;5.60;;;5.10;;
19260;SDS011;9764;48.114;11.670;2023-06-26T01:16:44;5.30;;;4.80;;
19260;SDS011;9764;48.114;11.670;2023-06-26T01:19:20;5.88;;;5.00;;
19260;SDS011;9764;48.114;11.670;2023-06-26T01:21:56;5.25;;;4.75;;
19260;SDS011;9764;48.114;11.670;2023-06-26T01:24:31;5.72;;;5.22;;
19260;SDS011;9764;48.114;11.670;2023-06-26T01:27:04;6.20;;;4.80;;
19260;SDS011;9764;48.114;11.670;2023-06-26T01:29:33;5.35;;;4.72;;
19260;SDS011;9764;48.114;11.670;2023-06-26T01:32:06;5.75;;;5.18;;
19260;SDS011;9764;48.114;11.670;2023-06-26T01:34:35;5.38;;;4.88;;
19260;SDS011;9764;48.114;11.670;2023-06-26T01:37:03;5.25;;;4.75;;
19260;SDS011;9764;48.114;11.670;2023-06-26T01:39:33;5.50;;;5.00;;
19260;SDS011;9764;48.114;11.670;2023-06-26T01:42:01;5.65;;;5.10;;
19260;SDS011;9764;48.114;11.670;2023-06-26T01:44:32;5.78;;;5.28;;
19260;SDS011;9764;48.114;11.670;2023-06-26T01:47:07;5.18;;;4.68;;
19260;SDS011;9764;48.114;11.670;2023-06-26T01:49:43;5.30;;;4.78;;
19260;SDS011;9764;48.114;11.670;2023-06-26T01:52:18;5.57;;;5.07;;
19260;SDS011;9764;48.114;11.670;2023-06-26T01:54:52;5.93;;;5.32;;
19260;SDS011;9764;48.114;11.670;2023-06-26T01:57:25;5.20;;;4.70;;
19260;SDS011;9764;48.114;11.670;2023-06-26T01:59:56;5.05;;;4.55;;
19260;SDS011;9764;48.114;11.670;2023-06-26T02:02:27;6.03;;;5.00;;
19260;SDS011;9764;48.114;11.670;2023-06-26T02:04:56;5.78;;;5.20;;
19260;SDS011;9764;48.114;11.670;2023-06-26T02:07:26;5.50;;;4.97;;
19260;SDS011;9764;48.114;11.670;2023-06-26T02:09:54;5.22;;;4.78;;
19260;SDS011;9764;48.114;11.670;2023-06-26T02:12:23;5.50;;;5.00;;
19260;SDS011;9764;48.114;11.670;2023-06-26T02:14:51;6.07;;;5.47;;
19260;SDS011;9764;48.114;11.670;2023-06-26T02:17:24;6.45;;;5.15;;
19260;SDS011;9764;48.114;11.670;2023-06-26T02:19:54;5.50;;;5.00;;
19260;SDS011;9764;48.114;11.670;2023-06-26T02:22:22;6.20;;;5.05;;
19260;SDS011;9764;48.114;11.670;2023-06-26T02:24:51;5.18;;;4.75;;
19260;SDS011;9764;48.114;11.670;2023-06-26T02:27:19;5.68;;;5.07;;
19260;SDS011;9764;48.114;11.670;2023-06-26T02:29:48;6.20;;;5.03;;
19260;SDS011;9764;48.114;11.670;2023-06-26T02:32:16;5.90;;;4.80;;
19260;SDS011;9764;48.114;11.670;2023-06-26T02:34:46;5.43;;;4.93;;
19260;SDS011;9764;48.114;11.670;2023-06-26T02:37:14;5.80;;;5.18;;
19260;SDS011;9764;48.114;11.670;2023-06-26T02:39:42;5.60;;;5.05;;
19260;SDS011;9764;48.114;11.670;2023-06-26T02:42:11;5.70;;;5.20;;
19260;SDS011;9764;48.114;11.670;2023-06-26T02:44:40;5.30;;;4.80;;
19260;SDS011;9764;48.114;11.670;2023-06-26T02:47:08;5.47;;;4.97;;
19260;SDS011;9764;48.114;11.670;2023-06-26T02:49:41;6.00;;;5.40;;
19260;SDS011;9764;48.114;11.670;2023-06-26T02:52:10;6.45;;;5.78;;
19260;SDS011;9764;48.114;11.670;2023-06-26T02:54:39;4.75;;;4.35;;
19260;SDS011;9764;48.114;11.670;2023-06-26T02:57:07;5.03;;;4.55;;
19260;SDS011;9764;48.114;11.670;2023-06-26T02:59:36;5.68;;;5.13;;
19260;SDS011;9764;48.114;11.670;2023-06-26T03:02:06;5.57;;;5.07;;
19260;SDS011;9764;48.114;11.670;2023-06-26T03:04:42;5.82;;;5.25;;
19260;SDS011;9764;48.114;11.670;2023-06-26T03:07:14;5.50;;;4.82;;
19260;SDS011;9764;48.114;11.670;2023-06-26T03:09:42;5.88;;;5.25;;
19260;SDS011;9764;48.114;11.670;2023-06-26T03:12:11;6.50;;;5.53;;
19260;SDS011;9764;48.114;11.670;2023-06-26T03:14:42;5.57;;;5.07;;
19260;SDS011;9764;48.114;11.670;2023-06-26T03:17:12;5.10;;;4.63;;
19260;SDS011;9764;48.114;11.670;2023-06-26T03:19:43;5.80;;;5.20;;
19260;SDS011;9764;48.114;11.670;2023-06-26T03:22:24;5.93;;;5.00;;
19260;SDS011;9764;48.114;11.670;2023-06-26T03:24:52;5.80;;;5.30;;
19260;SDS011;9764;48.114;11.670;2023-06-26T03:27:22;5.65;;;5.05;;
19260;SDS011;9764;48.114;11.670;2023-06-26T03:29:51;5.22;;;4.72;;
19260;SDS011;9764;48.114;11.670;2023-06-26T03:32:21;5.38;;;4.88;;
19260;SDS011;9764;48.114;11.670;2023-06-26T03:34:50;5.78;;;5.28;;
19260;SDS011;9764;48.114;11.670;2023-06-26T03:37:19;6.57;;;5.10;;
19260;SDS011;9764;48.114;11.670;2023-06-26T03:39:50;5.07;;;4.57;;
19260;SDS011;9764;48.114;11.670;2023-06-26T03:42:20;5.90;;;5.40;;
19260;SDS011;9764;48.114;11.670;2023-06-26T03:44:48;5.45;;;4.95;;
19260;SDS011;9764;48.114;11.670;2023-06-26T03:47:18;5.68;;;5.18;;
19260;SDS011;9764;48.114;11.670;2023-06-26T03:49:46;6.32;;;5.15;;
19260;SDS011;9764;48.114;11.670;2023-06-26T03:52:14;5.82;;;5.22;;
19260;SDS011;9764;48.114;11.670;2023-06-26T03:54:44;5.55;;;5.05;;
19260;SDS011;9764;48.114;11.670;2023-06-26T03:57:14;5.93;;;5.32;;
19260;SDS011;9764;48.114;11.670;2023-06-26T03:59:42;5.57;;;4.95;;
19260;SDS011;9764;48.114;11.670;2023-06-26T04:02:10;5.40;;;4.90;;
19260;SDS011;9764;48.114;11.670;2023-06-26T04:04:42;5.32;;;4.82;;
19260;SDS011;9764;48.114;11.670;2023-06-26T04:07:10;5.95;;;5.35;;
19260;SDS011;9764;48.114;11.670;2023-06-26T04:09:39;6.20;;;5.43;;
19260;SDS011;9764;48.114;11.670;2023-06-26T04:12:07;5.70;;;5.20;;
19260;SDS011;9764;48.114;11.670;2023-06-26T04:14:37;6.25;;;5.50;;
19260;SDS011;9764;48.114;11.670;2023-06-26T04:17:06;6.13;;;5.05;;
19260;SDS011;9764;48.114;11.670;2023-06-26T04:19:34;5.75;;;4.97;;
19260;SDS011;9764;48.114;11.670;2023-06-26T04:22:03;5.22;;;4.80;;
19260;SDS011;9764;48.114;11.670;2023-06-26T04:24:31;5.70;;;5.15;;
19260;SDS011;9764;48.114;11.670;2023-06-26T04:26:59;5.60;;;5.10;;
19260;SDS011;9764;48.114;11.670;2023-06-26T04:29:28;5.40;;;4.90;;
19260;SDS011;9764;48.114;11.670;2023-06-26T04:31:57;5.45;;;4.95;;
19260;SDS011;9764;48.114;11.670;2023-06-26T04:34:26;5.50;;;5.00;;
19260;SDS011;9764;48.114;11.670;2023-06-26T04:36:59;6.00;;;5.40;;
19260;SDS011;9764;48.114;11.670;2023-06-26T04:39:30;6.90;;;5.13;;
19260;SDS011;9764;48.114;11.670;2023-06-26T04:41:58;4.80;;;4.40;;
19260;SDS011;9764;48.114;11.670;2023-06-26T04:44:26;5.70;;;5.10;;
19260;SDS011;9764;48.114;11.670;2023-06-26T04:46:55;5.30;;;4.80;;
19260;SDS011;9764;48.114;11.670;2023-06-26T04:49:24;5.50;;;4.97;;
19260;SDS011;9764;48.114;11.670;2023-06-26T04:51:54;5.32;;;4.80;;
19260;SDS011;9764;48.114;11.670;2023-06-26T04:54:22;5.28;;;4.78;;
19260;SDS011;9764;48.114;11.670;2023-06-26T04:56:51;6.00;;;5.40;;
19260;SDS011;9764;48.114;11.670;2023-06-26T04:59:19;5.30;;;4.80;;
19260;SDS011;9764;48.114;11.670;2023-06-26T05:01:47;5.47;;;4.97;;
19260;SDS011;9764;48.114;11.670;2023-06-26T05:04:16;5.75;;;5.15;;
19260;SDS011;9764;48.114;11.670;2023-06-26T05:06:45;5.72;;;4.68;;
19260;SDS011;9764;48.114;11.670;2023-06-26T05:09:14;5.47;;;4.90;;
19260;SDS011;9764;48.114;11.670;2023-06-26T05:11:42;5.78;;;5.28;;
19260;SDS011;9764;48.114;11.670;2023-06-26T05:14:10;5.47;;;4.97;;
19260;SDS011;9764;48.114;11.670;2023-06-26T05:16:41;7.50;;;5.20;;
19260;SDS011;9764;48.114;11.670;2023-06-26T05:19:09;5.55;;;5.05;;
19260;SDS011;9764;48.114;11.670;2023-06-26T05:21:37;5.10;;;4.60;;
19260;SDS011;9764;48.114;11.670;2023-06-26T05:24:08;6.43;;;5.82;;
19260;SDS011;9764;48.114;11.670;2023-06-26T05:26:38;5.30;;;4.80;;
19260;SDS011;9764;48.114;11.670;2023-06-26T05:29:07;5.32;;;4.70;;
19260;SDS011;9764;48.114;11.670;2023-06-26T05:31:36;5.32;;;4.82;;
19260;SDS011;9764;48.114;11.670;2023-06-26T05:34:08;7.32;;;5.30;;
19260;SDS011;9764;48.114;11.670;2023-06-26T05:36:39;5.78;;;5.28;;
19260;SDS011;9764;48.114;11.670;2023-06-26T05:39:11;6.70;;;5.22;;
19260;SDS011;9764;48.114;11.670;2023-06-26T05:41:40;7.10;;;5.40;;
19260;SDS011;9764;48.114;11.670;2023-06-26T05:44:09;5.60;;;5.10;;
19260;SDS011;9764;48.114;11.670;2023-06-26T05:46:37;6.18;;;5.30;;
19260;SDS011;9764;48.114;11.670;2023-06-26T05:49:06;6.78;;;5.75;;
19260;SDS011;9764;48.114;11.670;2023-06-26T05:51:34;5.88;;;5.22;;
19260;SDS011;9764;48.114;11.670;2023-06-26T05:54:03;5.82;;;5.15;;
19260;SDS011;9764;48.114;11.670;2023-06-26T05:56:33;6.38;;;5.78;;
19260;SDS011;9764;48.114;11.670;2023-06-26T05:59:02;5.75;;;4.93;;
19260;SDS011;9764;48.114;11.670;2023-06-26T06:01:32;6.40;;;5.10;;
19260;SDS011;9764;48.114;11.670;2023-06-26T06:04:01;6.15;;;5.28;;
19260;SDS011;9764;48.114;11.670;2023-06-26T06:06:30;5.80;;;4.75;;
19260;SDS011;9764;48.114;11.670;2023-06-26T06:08:58;6.25;;;5.10;;
19260;SDS011;9764;48.114;11.670;2023-06-26T06:11:27;5.47;;;4.97;;
19260;SDS011;9764;48.114;11.670;2023-06-26T06:13:56;7.18;;;4.57;;
19260;SDS011;9764;48.114;11.670;2023-06-26T06:16:26;5.40;;;4.90;;
19260;SDS011;9764;48.114;11.670;2023-06-26T06:18:55;6.10;;;5.50;;
19260;SDS011;9764;48.114;11.670;2023-06-26T06:21:23;5.00;;;4.50;;
19260;SDS011;9764;48.114;11.670;2023-06-26T06:23:52;5.57;;;5.07;;
19260;SDS011;9764;48.114;11.670;2023-06-26T06:26:20;5.32;;;4.82;;
19260;SDS011;9764;48.114;11.670;2023-06-26T06:28:48;5.35;;;4.85;;
19260;SDS011;9764;48.114;11.670;2023-06-26T06:31:18;5.88;;;5.28;;
19260;SDS011;9764;48.114;11.670;2023-06-26T06:33:46;5.65;;;5.05;;
19260;SDS011;9764;48.114;11.670;2023-06-26T06:36:14;5.68;;;4.90;;
19260;SDS011;9764;48.114;11.670;2023-06-26T06:38:43;5.40;;;4.88;;
19260;SDS011;9764;48.114;11.670;2023-06-26T06:41:11;5.25;;;4.72;;
19260;SDS011;9764;48.114;11.670;2023-06-26T06:43:40;6.00;;;5.30;;
19260;SDS011;9764;48.114;11.670;2023-06-26T06:46:09;5.35;;;4.85;;
19260;SDS011;9764;48.114;11.670;2023-06-26T06:48:38;4.75;;;4.30;;
19260;SDS011;9764;48.114;11.670;2023-06-26T06:51:07;5.45;;;4.95;;
19260;SDS011;9764;48.114;11.670;2023-06-26T06:53:36;4.80;;;4.35;;
19260;SDS011;9764;48.114;11.670;2023-06-26T06:56:04;5.35;;;4.85;;
19260;SDS011;9764;48.114;11.670;2023-06-26T06:58:32;5.55;;;4.70;;
19260;SDS011;9764;48.114;11.670;2023-06-26T07:01:02;5.07;;;4.63;;
19260;SDS011;9764;48.114;11.670;2023-06-26T07:03:30;5.28;;;4.78;;
19260;SDS011;9764;48.114;11.670;2023-06-26T07:06:00;5.30;;;4.85;;
19260;SDS011;9764;48.114;11.670;2023-06-26T07:08:29;5.40;;;4.90;;
19260;SDS011;9764;48.114;11.670;2023-06-26T07:10:58;6.50;;;4.80;;
19260;SDS011;9764;48.114;11.670;2023-06-26T07:13:26;5.35;;;4.75;;
19260;SDS011;9764;48.114;11.670;2023-06-26T07:15:54;5.38;;;4.85;;
19260;SDS011;9764;48.114;11.670;2023-06-26T07:18:23;5.35;;;4.85;;
19260;SDS011;9764;48.114;11.670;2023-06-26T07:20:51;5.13;;;4.63;;
19260;SDS011;9764;48.114;11.670;2023-06-26T07:23:21;5.45;;;4.95;;
19260;SDS011;9764;48.114;11.670;2023-06-26T07:25:49;6.63;;;4.93;;
19260;SDS011;9764;48.114;11.670;2023-06-26T07:28:18;5.30;;;4.55;;
19260;SDS011;9764;48.114;11.670;2023-06-26T07:30:46;5.03;;;4.57;;
19260;SDS011;9764;48.114;11.670;2023-06-26T07:33:15;5.38;;;4.88;;
19260;SDS011;9764;48.114;11.670;2023-06-26T07:35:43;4.70;;;4.30;;
19260;SDS011;9764;48.114;11.670;2023-06-26T07:38:11;5.30;;;4.80;;
19260;SDS011;9764;48.114;11.670;2023-06-26T07:40:41;4.88;;;4.28;;
19260;SDS011;9764;48.114;11.670;2023-06-26T07:43:09;5.95;;;4.60;;
19260;SDS011;9764;48.114;11.670;2023-06-26T07:45:38;4.70;;;4.30;;
19260;SDS011;9764;48.114;11.670;2023-06-26T07:48:06;4.78;;;4.38;;
19260;SDS011;9764;48.114;11.670;2023-06-26T07:50:35;5.60;;;4.75;;
19260;SDS011;9764;48.114;11.670;2023-06-26T07:53:04;5.40;;;4.55;;
19260;SDS011;9764;48.114;11.670;2023-06-26T07:55:33;4.55;;;4.15;;
19260;SDS011;9764;48.114;11.670;2023-06-26T07:58:02;5.03;;;4.57;;
19260;SDS011;9764;48.114;11.670;2023-06-26T08:00:31;4.78;;;4.38;;
19260;SDS011;9764;48.114;11.670;2023-06-26T08:02:59;4.90;;;4.47;;
19260;SDS011;9764;48.114;11.670;2023-06-26T08:05:28;4.82;;;4.32;;
19260;SDS011;9764;48.114;11.670;2023-06-26T08:07:56;4.65;;;4.22;;
19260;SDS011;9764;48.114;11.670;2023-06-26T08:10:25;4.70;;;4.20;;
19260;SDS011;9764;48.114;11.670;2023-06-26T08:12:53;4.82;;;4.43;;
19260;SDS011;9764;48.114;11.670;2023-06-26T08:15:24;5.15;;;4.65;;
19260;SDS011;9764;48.114;11.670;2023-06-26T08:17:52;4.93;;;4.43;;
19260;SDS011;9764;48.114;11.670;2023-06-26T08:20:21;4.72;;;4.32;;
19260;SDS011;9764;48.114;11.670;2023-06-26T08:22:49;4.88;;;4.43;;
19260;SDS011;9764;48.114;11.670;2023-06-26T08:25:20;5.90;;;4.47;;
19260;SDS011;9764;48.114;11.670;2023-06-26T08:27:48;5.07;;;4.55;;
19260;SDS011;9764;48.114;11.670;2023-06-26T08:30:19;4.57;;;4.18;;
19260;SDS011;9764;48.114;11.670;2023-06-26T08:32:49;4.03;;;3.72;;
19260;SDS011;9764;48.114;11.670;2023-06-26T08:35:18;4.63;;;4.00;;
19260;SDS011;9764;48.114;11.670;2023-06-26T08:37:46;4.45;;;4.05;;
19260;SDS011;9764;48.114;11.670;2023-06-26T08:40:16;4.90;;;4.40;;
19260;SDS011;9764;48.114;11.670;2023-06-26T08:42:45;4.53;;;3.83;;
19260;SDS011;9764;48.114;11.670;2023-06-26T08:45:19;4.43;;;4.03;;
19260;SDS011;9764;48.114;11.670;2023-06-26T08:47:49;4.35;;;3.90;;
19260;SDS011;9764;48.114;11.670;2023-06-26T08:50:21;4.50;;;4.10;;
19260;SDS011;9764;48.114;11.670;2023-06-26T08:52:53;4.47;;;4.07;;
19260;SDS011;9764;48.114;11.670;2023-06-26T08:55:25;4.03;;;3.70;;
19260;SDS011;9764;48.114;11.670;2023-06-26T08:57:56;4.78;;;4.35;;
19260;SDS011;9764;48.114;11.670;2023-06-26T09:00:25;3.90;;;3.60;;
19260;SDS011;9764;48.114;11.670;2023-06-26T09:02:55;4.13;;;3.80;;
19260;SDS011;9764;48.114;11.670;2023-06-26T09:05:24;4.28;;;3.83;;
19260;SDS011;9764;48.114;11.670;2023-06-26T09:07:54;4.15;;;3.78;;
19260;SDS011;9764;48.114;11.670;2023-06-26T09:10:24;4.63;;;4.00;;
19260;SDS011;9764;48.114;11.670;2023-06-26T09:12:54;3.90;;;3.58;;
19260;SDS011;9764;48.114;11.670;2023-06-26T09:15:23;4.07;;;3.67;;
19260;SDS011;9764;48.114;11.670;2023-06-26T09:17:53;4.10;;;3.70;;
19260;SDS011;9764;48.114;11.670;2023-06-26T09:20:25;3.88;;;3.58;;
19260;SDS011;9764;48.114;11.670;2023-06-26T09:22:55;3.95;;;3.42;;
19260;SDS011;9764;48.114;11.670;2023-06-26T09:25:24;3.83;;;3.53;;
19260;SDS011;9764;48.114;11.670;2023-06-26T09:27:54;4.45;;;3.60;;
19260;SDS011;9764;48.114;11.670;2023-06-26T09:30:23;3.90;;;3.60;;
19260;SDS011;9764;48.114;11.670;2023-06-26T09:32:52;3.50;;;3.20;;
19260;SDS011;9764;48.114;11.670;2023-06-26T09:35:22;3.60;;;3.30;;
19260;SDS011;9764;48.114;11.670;2023-06-26T09:37:51;3.80;;;3.50;;
19260;SDS011;9764;48.114;11.670;2023-06-26T09:40:20;3.53;;;3.22;;
19260;SDS011;9764;48.114;11.670;2023-06-26T09:42:48;3.80;;;3.50;;
19260;SDS011;9764;48.114;11.670;2023-06-26T09:45:17;3.33;;;3.10;;
19260;SDS011;9764;48.114;11.670;2023-06-26T09:47:46;3.47;;;3.17;;
19260;SDS011;9764;48.114;11.670;2023-06-26T09:50:23;3.30;;;3.00;;
19260;SDS011;9764;48.114;11.670;2023-06-26T09:52:54;3.47;;;3.17;;
19260;SDS011;9764;48.114;11.670;2023-06-26T09:55:23;3.58;;;3.28;;
19260;SDS011;9764;48.114;11.670;2023-06-26T09:57:52;3.72;;;3.42;;
19260;SDS011;9764;48.114;11.670;2023-06-26T10:00:24;3.30;;;3.00;;
19260;SDS011;9764;48.114;11.670;2023-06-26T10:02:52;3.00;;;2.80;;
19260;SDS011;9764;48.114;11.670;2023-06-26T10:05:23;3.22;;;2.95;;
19260;SDS011;9764;48.114;11.670;2023-06-26T10:07:51;3.10;;;2.80;;
19260;SDS011;9764;48.114;11.670;2023-06-26T10:10:22;3.55;;;3.25;;
19260;SDS011;9764;48.114;11.670;2023-06-26T10:12:56;3.28;;;2.97;;
19260;SDS011;9764;48.114;11.670;2023-06-26T10:15:28;3.17;;;2.85;;
19260;SDS011;9764;48.114;11.670;2023-06-26T10:17:58;3.40;;;2.72;;
19260;SDS011;9764;48.114;11.670;2023-06-26T10:20:28;3.50;;;3.20;;
19260;SDS011;9764;48.114;11.670;2023-06-26T10:22:57;3.35;;;3.05;;
19260;SDS011;9764;48.114;11.670;2023-06-26T10:25:28;2.95;;;2.63;;
19260;SDS011;9764;48.114;11.670;2023-06-26T10:27:59;3.20;;;2.90;;
19260;SDS011;9764;48.114;11.670;2023-06-26T10:30:31;3.20;;;2.90;;
19260;SDS011;9764;48.114;11.670;2023-06-26T10:33:03;3.10;;;2.88;;
19260;SDS011;9764;48.114;11.670;2023-06-26T10:35:40;3.00;;;2.80;;
19260;SDS011;9764;48.114;11.670;2023-06-26T10:38:10;3.10;;;2.80;;
19260;SDS011;9764;48.114;11.670;2023-06-26T10:40:40;3.22;;;2.95;;
19260;SDS011;9764;48.114;11.670;2023-06-26T10:43:09;3.22;;;2.95;;
19260;SDS011;9764;48.114;11.670;2023-06-26T10:45:42;2.92;;;2.72;;
19260;SDS011;9764;48.114;11.670;2023-06-26T10:48:14;2.90;;;2.70;;
19260;SDS011;9764;48.114;11.670;2023-06-26T10:50:44;3.55;;;2.80;;
19260;SDS011;9764;48.114;11.670;2023-06-26T10:53:16;3.10;;;2.80;;
19260;SDS011;9764;48.114;11.670;2023-06-26T10:55:55;2.72;;;2.53;;
19260;SDS011;9764;48.114;11.670;2023-06-26T10:58:31;3.30;;;3.05;;
19260;SDS011;9764;48.114;11.670;2023-06-26T11:01:22;2.70;;;2.50;;
19260;SDS011;9764;48.114;11.670;2023-06-26T11:04:02;3.45;;;2.65;;
19260;SDS011;9764;48.114;11.670;2023-06-26T11:06:34;2.90;;;2.70;;
19260;SDS011;9764;48.114;11.670;2023-06-26T11:09:09;2.90;;;2.70;;
19260;SDS011;9764;48.114;11.670;2023-06-26T11:12:00;3.00;;;2.80;;
19260;SDS011;9764;48.114;11.670;2023-06-26T11:14:34;2.83;;;2.63;;
19260;SDS011;9764;48.114;11.670;2023-06-26T11:17:03;2.53;;;2.33;;
19260;SDS011;9764;48.114;11.670;2023-06-26T11:19:32;2.85;;;2.65;;
19260;SDS011;9764;48.114;11.670;2023-06-26T11:22:05;2.70;;;2.50;;
19260;SDS011;9764;48.114;11.670;2023-06-26T11:24:34;2.70;;;2.50;;
19260;SDS011;9764;48.114;11.670;2023-06-26T11:27:04;2.70;;;2.50;;
19260;SDS011;9764;48.114;11.670;2023-06-26T11:29:32;2.80;;;2.55;;
19260;SDS011;9764;48.114;11.670;2023-06-26T11:32:01;2.97;;;2.63;;
19260;SDS011;9764;48.114;11.670;2023-06-26T11:34:32;2.80;;;2.47;;
19260;SDS011;9764;48.114;11.670;2023-06-26T11:37:02;3.00;;;2.80;;
19260;SDS011;9764;48.114;11.670;2023-06-26T11:39:32;2.70;;;2.50;;
19260;SDS011;9764;48.114;11.670;2023-06-26T11:42:00;2.50;;;2.30;;
19260;SDS011;9764;48.114;11.670;2023-06-26T11:44:30;2.95;;;2.70;;
19260;SDS011;9764;48.114;11.670;2023-06-26T11:46:59;2.58;;;2.38;;
19260;SDS011;9764;48.114;11.670;2023-06-26T11:49:28;2.78;;;2.58;;
19260;SDS011;9764;48.114;11.670;2023-06-26T11:51:57;2.50;;;2.30;;
19260;SDS011;9764;48.114;11.670;2023-06-26T11:54:26;2.78;;;2.58;;
19260;SDS011;9764;48.114;11.670;2023-06-26T11:56:57;3.05;;;2.75;;
19260;SDS011;9764;48.114;11.670;2023-06-26T11:59:33;2.67;;;2.47;;
19260;SDS011;9764;48.114;11.670;2023-06-26T12:02:06;2.42;;;2.22;;
19260;SDS011;9764;48.114;11.670;2023-06-26T12:04:35;2.78;;;2.58;;
19260;SDS011;9764;48.114;11.670;2023-06-26T12:07:05;2.40;;;2.25;;
19260;SDS011;9764;48.114;11.670;2023-06-26T12:09:39;2.60;;;2.40;;
19260;SDS011;9764;48.114;11.670;2023-06-26T12:12:12;3.20;;;2.50;;
19260;SDS011;9764;48.114;11.670;2023-06-26T12:14:42;3.15;;;2.85;;
19260;SDS011;9764;48.114;11.670;2023-06-26T12:17:11;2.70;;;2.50;;
19260;SDS011;9764;48.114;11.670;2023-06-26T12:19:42;2.75;;;2.55;;
19260;SDS011;9764;48.114;11.670;2023-06-26T12:22:14;2.55;;;2.35;;
19260;SDS011;9764;48.114;11.670;2023-06-26T12:24:43;2.22;;;2.13;;
19260;SDS011;9764;48.114;11.670;2023-06-26T12:27:14;2.63;;;2.42;;
19260;SDS011;9764;48.114;11.670;2023-06-26T12:29:46;2.70;;;2.50;;
19260;SDS011;9764;48.114;11.670;2023-06-26T12:32:18;2.50;;;2.30;;
19260;SDS011;9764;48.114;11.670;2023-06-26T12:34:48;2.65;;;2.42;;
19260;SDS011;9764;48.114;11.670;2023-06-26T12:37:19;2.45;;;2.25;;
19260;SDS011;9764;48.114;11.670;2023-06-26T12:39:48;2.70;;;2.50;;
19260;SDS011;9764;48.114;11.670;2023-06-26T12:42:20;2.67;;;2.42;;
19260;SDS011;9764;48.114;11.670;2023-06-26T12:44:50;2.50;;;2.30;;
19260;SDS011;9764;48.114;11.670;2023-06-26T12:47:23;2.72;;;2.53;;
19260;SDS011;9764;48.114;11.670;2023-06-26T12:49:54;2.78;;;2.58;;
19260;SDS011;9764;48.114;11.670;2023-06-26T12:52:24;2.70;;;2.50;;
19260;SDS011;9764;48.114;11.670;2023-06-26T12:54:53;2.58;;;2.38;;
19260;SDS011;9764;48.114;11.670;2023-06-26T12:57:24;2.55;;;2.35;;
19260;SDS011;9764;48.114;11.670;2023-06-26T12:59:53;2.80;;;2.60;;
19260;SDS011;9764;48.114;11.670;2023-06-26T13:02:21;2.67;;;2.47;;
19260;SDS011;9764;48.114;11.670;2023-06-26T13:04:50;2.50;;;2.30;;
19260;SDS011;9764;48.114;11.670;2023-06-26T13:07:18;2.67;;;2.47;;
19260;SDS011;9764;48.114;11.670;2023-06-26T13:09:46;2.53;;;2.33;;
19260;SDS011;9764;48.114;11.670;2023-06-26T13:12:15;2.47;;;2.28;;
19260;SDS011;9764;48.114;11.670;2023-06-26T13:14:45;2.63;;;2.42;;
19260;SDS011;9764;48.114;11.670;2023-06-26T13:17:13;2.38;;;2.17;;
19260;SDS011;9764;48.114;11.670;2023-06-26T13:19:41;2.78;;;2.58;;
19260;SDS011;9764;48.114;11.670;2023-06-26T13:22:10;2.70;;;2.50;;
19260;SDS011;9764;48.114;11.670;2023-06-26T13:24:38;2.63;;;2.42;;
19260;SDS011;9764;48.114;11.670;2023-06-26T13:27:07;2.67;;;2.47;;
19260;SDS011;9764;48.114;11.670;2023-06-26T13:29:36;2.83;;;2.55;;
19260;SDS011;9764;48.114;11.670;2023-06-26T13:32:06;2.63;;;2.42;;
19260;SDS011;9764;48.114;11.670;2023-06-26T13:34:34;2.95;;;2.65;;
19260;SDS011;9764;48.114;11.670;2023-06-26T13:37:03;2.60;;;2.40;;
19260;SDS011;9764;48.114;11.670;2023-06-26T13:39:33;3.25;;;2.60;;
19260;SDS011;9764;48.114;11.670;2023-06-26T13:42:01;2.63;;;2.42;;
19260;SDS011;9764;48.114;11.670;2023-06-26T13:44:30;2.65;;;2.45;;
19260;SDS011;9764;48.114;11.670;2023-06-26T13:47:14;2.40;;;2.20;;
19260;SDS011;9764;48.114;11.670;2023-06-26T13:49:43;2.70;;;2.50;;
19260;SDS011;9764;48.114;11.670;2023-06-26T13:52:12;2.45;;;2.25;;
19260;SDS011;9764;48.114;11.670;2023-06-26T13:54:40;2.97;;;2.67;;
19260;SDS011;9764;48.114;11.670;2023-06-26T13:57:09;3.35;;;2.40;;
19260;SDS011;9764;48.114;11.670;2023-06-26T13:59:38;2.60;;;2.40;;
19260;SDS011;9764;48.114;11.670;2023-06-26T14:02:07;4.00;;;2.45;;
19260;SDS011;9764;48.114;11.670;2023-06-26T14:04:37;2.38;;;2.17;;
19260;SDS011;9764;48.114;11.670;2023-06-26T14:07:05;2.70;;;2.50;;
19260;SDS011;9764;48.114;11.670;2023-06-26T14:09:34;2.55;;;2.35;;
19260;SDS011;9764;48.114;11.670;2023-06-26T14:12:03;2.30;;;2.10;;
19260;SDS011;9764;48.114;11.670;2023-06-26T14:14:32;2.40;;;2.20;;
19260;SDS011;9764;48.114;11.670;2023-06-26T14:17:00;2.65;;;2.45;;
19260;SDS011;9764;48.114;11.670;2023-06-26T14:19:29;2.38;;;2.17;;
19260;SDS011;9764;48.114;11.670;2023-06-26T14:21:58;2.70;;;2.50;;
19260;SDS011;9764;48.114;11.670;2023-06-26T14:24:27;2.45;;;2.25;;
19260;SDS011;9764;48.114;11.670;2023-06-26T14:26:56;2.30;;;2.10;;
19260;SDS011;9764;48.114;11.670;2023-06-26T14:29:24;2.50;;;2.30;;
19260;SDS011;9764;48.114;11.670;2023-06-26T14:31:52;2.53;;;2.33;;
19260;SDS011;9764;48.114;11.670;2023-06-26T14:34:22;2.25;;;2.05;;
19260;SDS011;9764;48.114;11.670;2023-06-26T14:36:50;2.70;;;2.50;;
19260;SDS011;9764;48.114;11.670;2023-06-26T14:39:20;2.15;;;1.98;;
19260;SDS011;9764;48.114;11.670;2023-06-26T14:41:49;2.50;;;2.30;;
19260;SDS011;9764;48.114;11.670;2023-06-26T14:44:18;2.63;;;2.42;;
19260;SDS011;9764;48.114;11.670;2023-06-26T14:46:46;2.47;;;2.28;;
19260;SDS011;9764;48.114;11.670;2023-06-26T14:49:15;3.22;;;2.53;;
19260;SDS011;9764;48.114;11.670;2023-06-26T14:51:45;2.42;;;2.22;;
19260;SDS011;9764;48.114;11.670;2023-06-26T14:54:14;2.45;;;2.25;;
19260;SDS011;9764;48.114;11.670;2023-06-26T14:56:43;2.50;;;2.30;;
19260;SDS011;9764;48.114;11.670;2023-06-26T14:59:12;2.60;;;2.40;;
19260;SDS011;9764;48.114;11.670;2023-06-26T15:01:40;2.53;;;2.33;;
19260;SDS011;9764;48.114;11.670;2023-06-26T15:04:09;2.08;;;1.90;;